Aeroporto :
LOGIN :

Iscrizione | Disclaimer

   EN    FR    IT 

 










Sommario :    VFR   VFR Marginale   IFR   IFR Intensivo   IFR Molto Intensivo
Visibilità : 
Base nubi : 
>= 8 km
>= 3000ft
5 / 8 km
1000 / 3000 ft
1500m / 5 km
500 / 1000 ft
800 / 1500m
200 / 500 ft
< 800m
< 200 ft
Simboli :   Temporali  Nebbia  Neve Forte  Precipitazioni Forti  Vento > 20 kt
SIGMETs :   Varie  Temporali  Ghiacco  Turbolenza  Onda orograficha  Ceneri Vulcaniche







- Altitudine del aeroporto : 160 ft
- Codice IATA : FMO


EDDG - Münster Osnabrück Int.

ULTIMO METAR :
  • 190620Z 14003KT 100V200 CAVOK 23/16 Q1008 NOSIG

METARs OBSOLETI :
  • 190550Z 14004KT 100V180 CAVOK 21/16 Q1008 NOSIG
  • 190520Z 14005KT 090V170 CAVOK 20/15 Q1008 NOSIG
  • 190450Z 14004KT 080V190 CAVOK 19/15 Q1008 NOSIG
  • 190420Z VRB02KT CAVOK 18/15 Q1008 NOSIG
  • 190350Z VRB02KT CAVOK 18/15 Q1009 NOSIG

TAF TAF EDDG
Valido dal 19 a 06 ore il 20 a 06 ore UTC


190500Z 1906/2006 VRB03KT CAVOK
BECMG 1906/1908 20008KT
PROB40
TEMPO 1915/1922 23015G25KT TSRA BKN040CB
PROB30
TEMPO 1915/1920 23025G35KT 2000 TSRAGR BKN025CB
TEMPO 2002/2006 BKN013
Nessun NOTAM noto per questo aeroporto.



MetMap, La meteo Aeronautica in un colpo d'occhio ! - Copyright ORBIFLY Dicembre 2007 - Disclaimer

ORBIFLY MET'MAP TEAM :

Programmazione e sviluppo : Alexandra Zaïnal
Concezione e sviluppo : Baudouin d'Aumeries
Co-Programmazione e sviluppo : Marc-Olivier Méhu
Supporto tecnico e logistico : Manuel Goepfert
Aiuto per la traduzione : Arnaldo La Scala

Contatto : metmap@orbifly.com




FONTI E CREDITI :

   NOAA